createdAt,value
2024-01-29T00:02:18.659Z,9.30
2024-01-29T00:04:49.820Z,9.40
2024-01-29T00:07:20.849Z,8.40
2024-01-29T00:09:51.959Z,9.40
2024-01-29T00:12:23.106Z,9.20
2024-01-29T00:14:54.082Z,8.50
2024-01-29T00:17:25.176Z,9.90
2024-01-29T00:19:56.452Z,9.30
2024-01-29T00:22:27.565Z,9.90
2024-01-29T00:24:58.581Z,10.70
2024-01-29T00:27:29.750Z,9.90
2024-01-29T00:30:02.534Z,9.60
2024-01-29T00:32:33.553Z,9.90
2024-01-29T00:35:05.633Z,10.10
2024-01-29T00:37:36.643Z,10.40
2024-01-29T00:40:10.349Z,10.20
2024-01-29T00:42:41.373Z,10.00
2024-01-29T00:45:12.861Z,11.00
2024-01-29T00:47:43.798Z,11.00
2024-01-29T00:50:14.957Z,11.50
2024-01-29T00:52:46.221Z,10.50
2024-01-29T00:55:17.417Z,10.10
2024-01-29T00:57:48.324Z,11.40
2024-01-29T01:00:20.149Z,10.40
2024-01-29T01:02:51.131Z,10.80
2024-01-29T01:05:22.551Z,11.00
2024-01-29T01:07:53.589Z,12.20
2024-01-29T01:10:24.685Z,10.60
2024-01-29T01:12:55.712Z,11.90
2024-01-29T01:15:26.730Z,12.40
2024-01-29T01:17:58.102Z,11.60
2024-01-29T01:20:29.471Z,11.20
2024-01-29T01:23:01.453Z,11.50
2024-01-29T01:25:32.396Z,10.80
2024-01-29T01:28:03.314Z,10.00
2024-01-29T01:30:34.362Z,11.30
2024-01-29T01:33:05.850Z,11.90
2024-01-29T01:35:36.831Z,11.40
2024-01-29T01:38:08.637Z,10.80
2024-01-29T01:40:39.603Z,11.30
2024-01-29T01:43:21.798Z,11.50
2024-01-29T01:46:12.334Z,11.10
2024-01-29T01:48:43.507Z,10.30
2024-01-29T01:51:14.600Z,10.80
2024-01-29T01:53:46.955Z,11.10
2024-01-29T01:56:18.516Z,11.10
2024-01-29T01:58:49.779Z,11.90
2024-01-29T02:01:21.876Z,12.00
2024-01-29T02:03:53.120Z,11.10
2024-01-29T02:06:24.390Z,10.30
2024-01-29T02:08:56.100Z,10.60
2024-01-29T02:11:27.257Z,10.60
2024-01-29T02:13:58.212Z,11.90
2024-01-29T02:16:29.193Z,12.70
2024-01-29T02:19:00.897Z,11.30
2024-01-29T02:21:31.978Z,12.50
2024-01-29T02:24:02.958Z,12.00
2024-01-29T02:26:33.848Z,12.20
2024-01-29T02:29:04.895Z,11.70
2024-01-29T02:31:35.832Z,12.00
2024-01-29T02:34:06.955Z,11.70
2024-01-29T02:36:38.097Z,12.60
2024-01-29T02:39:09.489Z,11.90
2024-01-29T02:41:40.562Z,12.00
2024-01-29T02:44:11.429Z,12.20
2024-01-29T02:46:44.056Z,11.40
2024-01-29T02:49:15.326Z,11.70
2024-01-29T02:51:46.417Z,12.60
2024-01-29T02:54:17.375Z,11.60
2024-01-29T02:56:48.269Z,12.00
2024-01-29T02:59:19.278Z,12.90
2024-01-29T03:01:50.324Z,13.60
2024-01-29T03:04:21.330Z,12.40
2024-01-29T03:06:52.548Z,11.90
2024-01-29T03:09:23.508Z,13.50
2024-01-29T03:11:54.553Z,13.10
2024-01-29T03:14:25.494Z,12.00
2024-01-29T03:16:56.470Z,11.80
2024-01-29T03:19:28.226Z,12.20
2024-01-29T03:21:59.382Z,12.10
2024-01-29T03:24:30.529Z,12.50
2024-01-29T03:27:01.387Z,12.40
2024-01-29T03:29:32.391Z,11.80
2024-01-29T03:32:03.508Z,11.90
2024-01-29T03:34:35.373Z,11.70
2024-01-29T03:37:06.690Z,12.70
2024-01-29T03:39:37.625Z,11.50
2024-01-29T03:42:08.830Z,10.60
2024-01-29T03:44:39.784Z,9.90
2024-01-29T03:47:10.745Z,10.70
2024-01-29T03:49:41.691Z,11.30
2024-01-29T03:52:13.057Z,22.00
2024-01-29T03:54:44.129Z,14.20
2024-01-29T03:57:15.013Z,10.60
2024-01-29T03:59:45.938Z,11.30
2024-01-29T04:02:16.889Z,11.50
2024-01-29T04:04:49.751Z,11.60
2024-01-29T04:07:20.832Z,10.90
2024-01-29T04:09:51.790Z,11.10
2024-01-29T04:12:22.745Z,12.30
2024-01-29T04:14:54.059Z,11.60
2024-01-29T04:17:25.182Z,10.70
2024-01-29T04:19:56.295Z,17.40
2024-01-29T04:22:28.245Z,11.80
2024-01-29T04:25:01.483Z,10.60
2024-01-29T04:27:33.307Z,12.00
2024-01-29T04:30:04.465Z,10.80
2024-01-29T04:32:35.880Z,11.10
2024-01-29T04:35:08.259Z,10.40
2024-01-29T04:37:39.447Z,11.40
2024-01-29T04:40:12.952Z,11.30
2024-01-29T04:42:43.943Z,10.50
2024-01-29T04:45:14.943Z,11.20
2024-01-29T04:47:45.916Z,10.70
2024-01-29T04:50:17.156Z,11.50
2024-01-29T04:52:48.254Z,11.10
2024-01-29T04:55:19.427Z,11.00
2024-01-29T04:57:50.352Z,10.70
2024-01-29T05:00:22.415Z,10.20
2024-01-29T05:02:53.421Z,11.00
2024-01-29T05:05:25.147Z,10.80
2024-01-29T05:07:56.338Z,9.80
2024-01-29T05:10:27.748Z,10.20
2024-01-29T05:12:58.943Z,11.10
2024-01-29T05:15:35.447Z,11.30
2024-01-29T05:18:07.865Z,10.50
2024-01-29T05:20:39.042Z,11.70
2024-01-29T05:23:10.386Z,11.20
2024-01-29T05:25:43.531Z,21.20
2024-01-29T05:28:14.559Z,11.70
2024-01-29T05:30:45.633Z,11.90
2024-01-29T05:33:25.315Z,10.20
2024-01-29T05:36:01.051Z,10.80
2024-01-29T05:38:33.655Z,10.80
2024-01-29T05:41:04.880Z,10.70
2024-01-29T05:43:35.914Z,11.50
2024-01-29T05:46:08.832Z,11.10
2024-01-29T05:48:40.139Z,10.40
2024-01-29T05:51:11.346Z,10.90
2024-01-29T05:53:56.516Z,10.30
2024-01-29T05:56:29.048Z,11.20
2024-01-29T05:58:59.978Z,10.10
2024-01-29T06:01:30.983Z,10.70
2024-01-29T06:04:02.076Z,10.50
2024-01-29T06:07:14.433Z,9.90
2024-01-29T06:09:51.081Z,10.80
2024-01-29T06:12:36.441Z,12.70
2024-01-29T06:15:08.772Z,11.30
2024-01-29T06:17:41.735Z,11.10
2024-01-29T06:20:18.078Z,11.20
2024-01-29T06:22:50.713Z,11.10
2024-01-29T06:25:22.172Z,12.20
2024-01-29T06:27:53.480Z,10.60
2024-01-29T06:30:25.194Z,11.70
2024-01-29T06:33:00.827Z,11.70
2024-01-29T06:35:33.931Z,11.60
2024-01-29T06:38:14.080Z,10.70
2024-01-29T06:40:45.391Z,11.40
2024-01-29T06:43:19.678Z,10.90
2024-01-29T06:45:50.994Z,11.00
2024-01-29T06:48:22.178Z,11.00
2024-01-29T06:50:53.334Z,9.20
2024-01-29T06:53:24.741Z,10.40
2024-01-29T06:55:56.145Z,10.10
2024-01-29T06:58:29.693Z,11.60
2024-01-29T07:01:03.369Z,10.40
2024-01-29T07:03:35.038Z,10.40
2024-01-29T07:06:06.610Z,11.10
2024-01-29T07:08:37.555Z,11.30
2024-01-29T07:11:08.910Z,10.50
2024-01-29T07:13:40.001Z,10.40
2024-01-29T07:16:11.222Z,9.70
2024-01-29T07:18:42.618Z,9.20
2024-01-29T07:21:14.568Z,8.70
2024-01-29T07:23:45.804Z,9.00
2024-01-29T07:26:17.350Z,8.80
2024-01-29T07:28:48.530Z,9.10
2024-01-29T07:31:25.681Z,10.70
2024-01-29T07:33:57.023Z,9.40
2024-01-29T07:36:28.837Z,9.40
2024-01-29T07:39:01.577Z,9.60
2024-01-29T07:41:32.863Z,11.20
2024-01-29T07:44:03.956Z,9.60
2024-01-29T07:46:35.763Z,8.70
2024-01-29T07:49:33.276Z,9.30
2024-01-29T07:52:08.172Z,6.50
2024-01-29T07:54:39.548Z,6.60
2024-01-29T07:57:10.694Z,7.10
2024-01-29T07:59:41.782Z,6.50
2024-01-29T08:02:14.750Z,6.90
2024-01-29T08:04:46.448Z,6.30
2024-01-29T08:07:18.282Z,5.50
2024-01-29T08:09:49.493Z,6.30
2024-01-29T08:12:23.780Z,5.60
2024-01-29T08:14:55.329Z,6.00
2024-01-29T08:17:27.642Z,6.00
2024-01-29T08:19:58.998Z,5.40
2024-01-29T08:22:30.981Z,10.90
2024-01-29T08:25:01.997Z,7.30
2024-01-29T08:27:33.268Z,5.00
2024-01-29T08:30:04.748Z,5.70
2024-01-29T08:32:36.201Z,5.50
2024-01-29T08:35:09.262Z,4.40
2024-01-29T08:37:40.237Z,5.60
2024-01-29T08:40:13.013Z,4.80
2024-01-29T08:42:44.124Z,5.50
2024-01-29T08:45:21.034Z,5.20
2024-01-29T08:47:54.565Z,4.70
2024-01-29T08:50:25.679Z,5.90
2024-01-29T08:52:57.227Z,5.20
2024-01-29T08:55:28.450Z,5.30
2024-01-29T08:57:59.708Z,5.20
2024-01-29T09:00:30.960Z,5.80
2024-01-29T09:03:02.294Z,5.30
2024-01-29T09:05:33.476Z,5.00
2024-01-29T09:08:12.908Z,5.20
2024-01-29T09:10:48.862Z,5.30
2024-01-29T09:13:20.357Z,4.80
2024-01-29T09:15:51.732Z,4.80
2024-01-29T09:18:23.051Z,5.50
2024-01-29T09:20:54.253Z,5.20
2024-01-29T09:23:25.743Z,4.90
2024-01-29T09:25:57.044Z,5.10
2024-01-29T09:28:28.616Z,5.20
2024-01-29T09:30:59.781Z,5.40
2024-01-29T09:33:31.560Z,5.50
2024-01-29T09:36:03.216Z,4.90
2024-01-29T09:38:34.449Z,5.20
2024-01-29T09:41:07.142Z,6.10
2024-01-29T09:43:41.820Z,5.00
2024-01-29T09:46:16.034Z,5.40
2024-01-29T09:48:48.449Z,5.00
2024-01-29T09:51:21.733Z,4.90
2024-01-29T09:53:54.134Z,5.50
2024-01-29T09:56:25.395Z,5.10
2024-01-29T09:58:57.118Z,5.30
2024-01-29T10:01:28.946Z,5.50
2024-01-29T10:04:00.220Z,5.30
2024-01-29T10:06:33.622Z,4.90
2024-01-29T10:09:06.080Z,5.30
2024-01-29T10:11:38.077Z,5.20
2024-01-29T10:14:09.241Z,4.80
2024-01-29T10:16:40.709Z,5.30
2024-01-29T10:19:14.127Z,5.80
2024-01-29T10:21:46.180Z,5.70
2024-01-29T10:24:19.008Z,6.30
2024-01-29T10:26:50.153Z,6.50
2024-01-29T10:29:23.471Z,6.00
2024-01-29T10:32:00.299Z,6.30
2024-01-29T10:34:31.587Z,6.10
2024-01-29T10:37:04.383Z,7.40
2024-01-29T10:39:46.568Z,6.60
2024-01-29T10:42:22.804Z,7.40
2024-01-29T10:44:58.309Z,7.50
2024-01-29T10:47:41.994Z,7.40
2024-01-29T10:50:17.862Z,8.50
2024-01-29T10:52:50.606Z,7.10
2024-01-29T10:55:22.501Z,8.80
2024-01-29T10:57:54.410Z,10.20
2024-01-29T11:00:26.828Z,7.90
2024-01-29T11:02:59.934Z,7.60
2024-01-29T11:05:33.054Z,7.70
2024-01-29T11:08:06.150Z,7.60
2024-01-29T11:10:38.468Z,8.40
2024-01-29T11:13:13.565Z,7.80
2024-01-29T11:15:45.066Z,7.50
2024-01-29T11:18:16.654Z,8.30
2024-01-29T11:20:54.153Z,8.30
2024-01-29T11:23:31.443Z,7.70
2024-01-29T11:26:05.311Z,8.30
2024-01-29T11:28:36.594Z,7.40
2024-01-29T11:31:13.774Z,7.10
2024-01-29T11:33:45.536Z,6.80
2024-01-29T11:36:19.246Z,6.90
2024-01-29T11:39:03.353Z,7.20
2024-01-29T11:41:35.550Z,8.40
2024-01-29T11:44:09.497Z,8.40
2024-01-29T11:46:44.803Z,7.70
2024-01-29T11:49:24.468Z,7.50
2024-01-29T11:51:58.432Z,7.00
2024-01-29T11:54:29.996Z,6.90
2024-01-29T11:57:01.171Z,7.70
2024-01-29T11:59:32.214Z,6.60
2024-01-29T12:02:03.652Z,7.80
2024-01-29T12:04:35.080Z,6.80
2024-01-29T12:07:08.410Z,7.20
2024-01-29T12:09:42.657Z,8.00
2024-01-29T12:12:14.313Z,6.40
2024-01-29T12:14:49.045Z,7.80
2024-01-29T12:17:20.488Z,7.60
2024-01-29T12:19:52.995Z,6.90
2024-01-29T12:22:24.769Z,6.40
2024-01-29T12:24:58.196Z,7.80
2024-01-29T12:27:30.130Z,7.50
2024-01-29T12:30:02.141Z,7.20
2024-01-29T12:32:33.948Z,6.90
2024-01-29T12:35:05.555Z,8.80
2024-01-29T12:37:36.559Z,7.10
2024-01-29T12:40:17.163Z,6.70
2024-01-29T12:42:48.329Z,6.70
2024-01-29T12:45:19.772Z,6.70
2024-01-29T12:47:52.119Z,6.80
2024-01-29T12:50:25.573Z,7.00
2024-01-29T12:52:56.866Z,6.60
2024-01-29T12:55:28.891Z,7.10
2024-01-29T12:58:00.263Z,6.20
2024-01-29T13:00:33.658Z,6.40
2024-01-29T13:03:06.915Z,7.50
2024-01-29T13:05:40.213Z,6.60
2024-01-29T13:08:11.491Z,5.80
2024-01-29T13:10:42.727Z,7.20
2024-01-29T13:13:15.387Z,6.20
2024-01-29T13:15:46.556Z,7.00
2024-01-29T13:18:17.580Z,5.40
2024-01-29T13:20:48.622Z,6.00
2024-01-29T13:23:19.938Z,7.30
2024-01-29T13:25:51.433Z,7.20
2024-01-29T13:28:22.555Z,6.50
2024-01-29T13:30:54.356Z,6.20
2024-01-29T13:33:25.578Z,5.90
2024-01-29T13:35:57.355Z,6.00
2024-01-29T13:38:31.512Z,7.00
2024-01-29T13:41:02.526Z,6.40
2024-01-29T13:43:33.602Z,6.30
2024-01-29T13:46:04.609Z,12.10
2024-01-29T13:48:35.762Z,6.80
2024-01-29T13:51:07.287Z,6.10
2024-01-29T13:53:41.029Z,6.60
2024-01-29T13:56:12.155Z,6.60
2024-01-29T13:58:43.220Z,6.70
2024-01-29T14:01:15.345Z,5.80
2024-01-29T14:03:46.549Z,6.90
2024-01-29T14:06:18.082Z,6.00
2024-01-29T14:08:49.181Z,6.70
2024-01-29T14:11:20.113Z,7.20
2024-01-29T14:13:53.974Z,6.80
2024-01-29T14:16:26.364Z,6.80
2024-01-29T14:18:58.758Z,6.90
2024-01-29T14:21:30.075Z,6.20
2024-01-29T14:24:01.124Z,9.70
2024-01-29T14:26:32.675Z,7.70
2024-01-29T14:29:04.650Z,7.10
2024-01-29T14:31:41.807Z,7.40
2024-01-29T14:34:13.397Z,7.00
2024-01-29T14:36:45.162Z,6.20
2024-01-29T14:39:19.904Z,7.00
2024-01-29T14:41:52.088Z,6.90
2024-01-29T14:44:23.291Z,6.10
2024-01-29T14:46:54.841Z,6.90
2024-01-29T14:49:25.933Z,7.00
2024-01-29T14:51:57.160Z,6.80
2024-01-29T14:54:29.033Z,6.80
2024-01-29T14:57:02.171Z,6.80
2024-01-29T14:59:33.257Z,7.20
2024-01-29T15:02:08.005Z,6.60
2024-01-29T15:04:39.368Z,6.90
2024-01-29T15:07:10.480Z,7.10
2024-01-29T15:09:41.822Z,6.90
2024-01-29T15:12:13.840Z,8.10
2024-01-29T15:14:49.874Z,6.40
2024-01-29T15:17:21.177Z,7.40
2024-01-29T15:19:52.428Z,8.50
2024-01-29T15:22:24.242Z,7.50
2024-01-29T15:24:57.575Z,7.70
2024-01-29T15:27:28.677Z,7.20
2024-01-29T15:30:00.242Z,9.90
2024-01-29T15:32:32.129Z,8.70
2024-01-29T15:35:03.887Z,7.90
2024-01-29T15:37:36.875Z,7.70
2024-01-29T15:40:12.514Z,7.80
2024-01-29T15:42:44.472Z,7.10
2024-01-29T15:45:15.805Z,7.50
2024-01-29T15:47:48.230Z,9.10
2024-01-29T15:50:20.164Z,8.30
2024-01-29T15:52:51.208Z,7.80
2024-01-29T15:55:40.293Z,8.50
2024-01-29T15:58:19.250Z,8.70
2024-01-29T16:00:50.822Z,7.20
2024-01-29T16:03:22.038Z,8.30
2024-01-29T16:05:53.124Z,7.40
2024-01-29T16:08:24.232Z,7.80
2024-01-29T16:10:56.349Z,7.70
2024-01-29T16:13:28.520Z,8.00
2024-01-29T16:15:59.753Z,8.50
2024-01-29T16:18:31.009Z,8.60
2024-01-29T16:21:02.621Z,8.40
2024-01-29T16:23:34.029Z,8.40
2024-01-29T16:26:05.375Z,8.80
2024-01-29T16:28:36.466Z,7.80
2024-01-29T16:31:09.993Z,9.10
2024-01-29T16:33:41.158Z,8.30
2024-01-29T16:36:20.143Z,7.90
2024-01-29T16:38:52.653Z,8.80
2024-01-29T16:41:25.584Z,8.20
2024-01-29T16:43:57.942Z,9.00
2024-01-29T16:46:29.684Z,7.90
2024-01-29T16:49:01.005Z,14.30
2024-01-29T16:51:32.216Z,9.80
2024-01-29T16:54:03.421Z,9.40
2024-01-29T16:56:38.615Z,9.50
2024-01-29T16:59:11.168Z,10.10
2024-01-29T17:01:42.995Z,9.20
2024-01-29T17:04:14.261Z,10.10
2024-01-29T17:06:45.574Z,8.30
2024-01-29T17:09:17.484Z,8.60
2024-01-29T17:11:48.881Z,8.20
2024-01-29T17:14:20.112Z,9.10
2024-01-29T17:16:52.128Z,9.90
2024-01-29T17:19:24.223Z,9.50
2024-01-29T17:21:55.645Z,11.60
2024-01-29T17:24:28.975Z,10.00
2024-01-29T17:27:01.670Z,11.50
2024-01-29T17:29:34.698Z,11.40
2024-01-29T17:32:06.304Z,9.70
2024-01-29T17:34:38.269Z,10.70
2024-01-29T17:37:11.744Z,9.70
2024-01-29T17:39:54.366Z,10.20
2024-01-29T17:42:25.839Z,9.10
2024-01-29T17:44:57.642Z,11.50
2024-01-29T17:47:29.063Z,11.20
2024-01-29T17:50:04.192Z,11.60
2024-01-29T17:52:35.988Z,10.80
2024-01-29T17:55:08.586Z,12.90
2024-01-29T17:57:39.715Z,11.30
2024-01-29T18:00:14.671Z,12.30
2024-01-29T18:02:45.966Z,11.00
2024-01-29T18:05:23.123Z,12.60
2024-01-29T18:07:54.918Z,11.90
2024-01-29T18:10:26.653Z,13.20
2024-01-29T18:12:57.752Z,12.20
2024-01-29T18:15:31.842Z,13.40
2024-01-29T18:18:04.066Z,14.50
2024-01-29T18:20:35.156Z,16.20
2024-01-29T18:23:09.570Z,12.90
2024-01-29T18:25:41.928Z,13.00
2024-01-29T18:28:13.031Z,15.40
2024-01-29T18:30:44.188Z,14.40
2024-01-29T18:33:15.276Z,13.70
2024-01-29T18:35:47.024Z,14.00
2024-01-29T18:38:18.087Z,12.80
2024-01-29T18:40:55.615Z,14.80
2024-01-29T18:43:27.105Z,13.20
2024-01-29T18:45:58.222Z,14.30
2024-01-29T18:48:29.856Z,14.10
2024-01-29T18:51:00.769Z,13.20
2024-01-29T18:53:31.902Z,15.30
2024-01-29T18:56:03.229Z,15.30
2024-01-29T18:58:34.192Z,14.80
2024-01-29T19:01:05.380Z,14.90
2024-01-29T19:03:36.765Z,15.00
2024-01-29T19:06:09.542Z,14.50
2024-01-29T19:08:42.777Z,15.90
2024-01-29T19:11:13.793Z,14.60
2024-01-29T19:13:44.865Z,14.60
2024-01-29T19:16:16.513Z,14.70
2024-01-29T19:18:49.792Z,16.00
2024-01-29T19:21:20.907Z,14.40
2024-01-29T19:23:52.017Z,15.50
2024-01-29T19:26:23.309Z,14.20
2024-01-29T19:28:54.265Z,15.10
2024-01-29T19:31:25.571Z,15.40
2024-01-29T19:33:56.731Z,16.40
2024-01-29T19:36:31.088Z,15.70
2024-01-29T19:39:02.114Z,15.60
2024-01-29T19:41:33.633Z,16.50
2024-01-29T19:44:07.459Z,16.10
2024-01-29T19:46:45.411Z,17.00
2024-01-29T19:49:16.789Z,14.90
2024-01-29T19:51:47.990Z,15.70
2024-01-29T19:54:19.187Z,16.90
2024-01-29T19:56:50.146Z,17.10
2024-01-29T19:59:23.641Z,15.50
2024-01-29T20:01:54.748Z,18.70
2024-01-29T20:04:25.954Z,14.30
2024-01-29T20:06:57.517Z,17.10
2024-01-29T20:09:29.009Z,18.10
2024-01-29T20:11:59.998Z,16.50
2024-01-29T20:14:33.114Z,16.90
2024-01-29T20:17:05.987Z,17.80
2024-01-29T20:19:37.236Z,17.40
2024-01-29T20:22:09.894Z,19.30
2024-01-29T20:24:46.887Z,17.30
2024-01-29T20:27:21.077Z,18.80
2024-01-29T20:29:52.320Z,19.20
2024-01-29T20:32:27.102Z,17.40
2024-01-29T20:34:58.417Z,16.90
2024-01-29T20:37:29.685Z,18.00
2024-01-29T20:40:00.950Z,16.90
2024-01-29T20:42:33.792Z,17.40
2024-01-29T20:45:05.446Z,17.80
2024-01-29T20:47:44.341Z,18.10
2024-01-29T20:50:15.669Z,16.90
2024-01-29T20:52:48.301Z,18.00
2024-01-29T20:55:20.689Z,17.80
2024-01-29T20:57:52.282Z,18.60
2024-01-29T21:00:24.122Z,17.50
2024-01-29T21:02:55.493Z,17.40
2024-01-29T21:05:27.188Z,16.70
2024-01-29T21:07:58.552Z,18.80
2024-01-29T21:10:30.617Z,18.60
2024-01-29T21:13:01.820Z,19.70
2024-01-29T21:15:33.457Z,18.60
2024-01-29T21:18:06.049Z,20.80
2024-01-29T21:20:40.188Z,18.60
2024-01-29T21:23:11.364Z,16.40
2024-01-29T21:25:46.572Z,19.40
2024-01-29T21:28:20.281Z,19.80
2024-01-29T21:30:52.030Z,17.70
2024-01-29T21:33:23.169Z,18.90
2024-01-29T21:35:57.902Z,19.60
2024-01-29T21:38:30.410Z,20.00
2024-01-29T21:41:03.864Z,18.80
2024-01-29T21:43:34.846Z,18.20
2024-01-29T21:46:06.199Z,18.90
2024-01-29T21:48:37.433Z,20.00
2024-01-29T21:51:08.713Z,19.10
2024-01-29T21:53:39.757Z,18.30
2024-01-29T21:56:11.741Z,18.80
2024-01-29T21:58:42.808Z,17.90
2024-01-29T22:01:15.207Z,18.70
2024-01-29T22:03:46.234Z,19.90
2024-01-29T22:06:22.918Z,18.40
2024-01-29T22:08:53.975Z,20.30
2024-01-29T22:11:25.224Z,18.00
2024-01-29T22:13:56.341Z,18.50
2024-01-29T22:16:27.458Z,18.80
2024-01-29T22:18:58.609Z,17.50
2024-01-29T22:21:29.855Z,19.10
2024-01-29T22:24:00.840Z,19.70
2024-01-29T22:26:31.896Z,17.90
2024-01-29T22:29:04.365Z,17.10
2024-01-29T22:31:35.840Z,20.10
2024-01-29T22:34:08.253Z,18.80
2024-01-29T22:36:39.495Z,19.10
2024-01-29T22:39:12.237Z,19.20
2024-01-29T22:41:43.254Z,19.20
2024-01-29T22:44:14.277Z,21.80
2024-01-29T22:46:47.140Z,19.80
2024-01-29T22:49:18.284Z,20.80
2024-01-29T22:51:49.434Z,19.80
2024-01-29T22:54:20.413Z,20.50
2024-01-29T22:56:51.390Z,18.60
2024-01-29T22:59:22.420Z,18.80
2024-01-29T23:01:54.018Z,20.50
2024-01-29T23:04:28.481Z,17.70
2024-01-29T23:06:59.860Z,18.60
2024-01-29T23:09:33.083Z,19.50
2024-01-29T23:12:04.034Z,19.30
2024-01-29T23:14:35.160Z,19.00
2024-01-29T23:17:06.466Z,18.50
2024-01-29T23:19:37.565Z,20.30
2024-01-29T23:22:09.084Z,19.80
2024-01-29T23:24:40.160Z,19.20
2024-01-29T23:27:11.174Z,19.50
2024-01-29T23:29:42.154Z,20.00
2024-01-29T23:32:13.130Z,21.40
2024-01-29T23:34:44.224Z,20.40
2024-01-29T23:37:25.346Z,18.70
2024-01-29T23:39:56.721Z,19.20
2024-01-29T23:42:27.687Z,20.80
2024-01-29T23:44:58.631Z,21.10
2024-01-29T23:47:29.816Z,20.20
2024-01-29T23:50:01.018Z,20.40
2024-01-29T23:52:32.676Z,22.60
2024-01-29T23:55:03.728Z,18.90
2024-01-29T23:57:34.699Z,21.80
